Terminal Aerodrome Forecast
Issued by NWS

Home | Current Version | Previous Version | Text Only | Print | Product List | Glossary On
Versions: 1 2 3 4 5 6 7 8 9 10 11 12 13 14 15 16 17 18 19 20 21
000
FTUS43 KAPX 262323
TAFPLN
TAF
KPLN 262323Z 2700/2724 31005KT P6SM SCT250
     FM270700 VRB03KT P6SM BKN200
     FM271200 12004KT P6SM SHRA OVC070
     FM271600 13005KT P6SM SHRA OVC040
     FM271700 12006KT 6SM SHRA OVC025
     FM272100 09006KT P6SM SHRA OVC020=

USA.gov is the U.S. government's official web portal to all federal, state and local government web resources and services.